createdAt,value
2023-01-25T00:00:44.805Z,30.80
2023-01-25T00:03:11.335Z,37.73
2023-01-25T00:05:37.857Z,37.73
2023-01-25T00:08:04.871Z,47.07
2023-01-25T00:10:31.335Z,43.07
2023-01-25T00:12:57.803Z,46.20
2023-01-25T00:15:24.275Z,41.80
2023-01-25T00:17:50.772Z,38.50
2023-01-25T00:20:17.304Z,35.40
2023-01-25T00:22:43.761Z,35.67
2023-01-25T00:25:10.529Z,30.40
2023-01-25T00:27:37.098Z,34.33
2023-01-25T00:30:04.551Z,31.30
2023-01-25T00:34:17.406Z,31.00
2023-01-25T00:36:44.963Z,27.70
2023-01-25T00:39:15.841Z,36.63
2023-01-25T00:41:43.309Z,31.07
2023-01-25T00:44:09.929Z,31.83
2023-01-25T00:46:36.698Z,30.10
2023-01-25T00:49:03.179Z,30.17
2023-01-25T00:51:29.648Z,29.80
2023-01-25T00:53:56.121Z,34.73
2023-01-25T00:56:22.736Z,34.97
2023-01-25T00:58:49.196Z,31.80
2023-01-25T01:01:15.746Z,32.77
2023-01-25T01:03:42.277Z,27.27
2023-01-25T01:06:11.751Z,31.13
2023-01-25T01:08:42.084Z,27.87
2023-01-25T01:11:11.625Z,27.50
2023-01-25T01:13:39.275Z,26.33
2023-01-25T01:16:11.136Z,26.27
2023-01-25T01:18:42.840Z,26.03
2023-01-25T01:21:10.984Z,28.20
2023-01-25T01:23:38.336Z,31.40
2023-01-25T01:26:10.575Z,25.87
2023-01-25T01:28:40.265Z,20.43
2023-01-25T01:31:21.651Z,31.53
2023-01-25T01:33:54.249Z,24.53
2023-01-25T01:36:25.234Z,21.07
2023-01-25T01:38:51.959Z,22.77
2023-01-25T01:41:19.630Z,18.13
2023-01-25T01:43:46.468Z,20.83
2023-01-25T01:46:37.702Z,17.70
2023-01-25T01:49:28.502Z,12.30
2023-01-25T01:52:14.981Z,13.30
2023-01-25T01:54:59.932Z,12.40
2023-01-25T01:57:34.078Z,13.03
2023-01-25T02:00:22.790Z,9.47
2023-01-25T02:02:51.005Z,11.37
2023-01-25T02:05:31.741Z,11.83
2023-01-25T02:08:01.439Z,11.47
2023-01-25T02:10:29.986Z,12.13
2023-01-25T02:12:58.096Z,11.67
2023-01-25T02:15:32.857Z,23.27
2023-01-25T02:17:59.665Z,26.50
2023-01-25T02:20:41.747Z,15.83
2023-01-25T02:24:50.115Z,15.43
2023-01-25T02:27:17.821Z,13.17
2023-01-25T02:29:44.882Z,12.27
2023-01-25T02:32:13.076Z,14.60
2023-01-25T02:34:39.537Z,13.17
2023-01-25T02:37:06.072Z,12.37
2023-01-25T02:39:32.655Z,13.00
2023-01-25T02:41:59.143Z,15.03
2023-01-25T02:44:33.466Z,9.73
2023-01-25T02:47:00.814Z,10.73
2023-01-25T02:49:27.312Z,11.23
2023-01-25T02:51:56.556Z,8.63
2023-01-25T02:54:25.301Z,9.37
2023-01-25T02:56:51.970Z,8.93
2023-01-25T02:59:18.525Z,9.73
2023-01-25T03:01:46.014Z,12.03
2023-01-25T03:04:12.803Z,11.70
2023-01-25T03:06:40.070Z,12.73
2023-01-25T03:09:09.847Z,13.27
2023-01-25T03:11:36.709Z,11.30
2023-01-25T03:14:03.213Z,10.97
2023-01-25T03:16:31.560Z,10.43
2023-01-25T03:18:58.109Z,9.67
2023-01-25T03:21:24.861Z,12.47
2023-01-25T03:23:58.427Z,13.03
2023-01-25T03:26:26.537Z,12.87
2023-01-25T03:28:53.143Z,12.33
2023-01-25T03:31:19.777Z,11.90
2023-01-25T03:33:46.646Z,12.03
2023-01-25T03:36:13.416Z,12.20
2023-01-25T03:38:39.922Z,10.67
2023-01-25T03:41:07.161Z,9.20
2023-01-25T03:43:33.602Z,8.33
2023-01-25T03:46:01.624Z,7.77
2023-01-25T03:48:28.701Z,7.77
2023-01-25T03:50:58.207Z,10.27
2023-01-25T03:53:30.059Z,10.53
2023-01-25T03:56:09.764Z,10.73
2023-01-25T03:58:38.779Z,9.97
2023-01-25T04:01:07.113Z,10.13
2023-01-25T04:03:34.407Z,10.43
2023-01-25T04:06:01.578Z,10.40
2023-01-25T04:08:29.090Z,9.67
2023-01-25T04:11:00.771Z,9.73
2023-01-25T04:13:27.522Z,10.60
2023-01-25T04:15:54.438Z,7.10
2023-01-25T04:18:21.575Z,11.87
2023-01-25T04:20:56.415Z,8.77
2023-01-25T04:23:24.539Z,9.57
2023-01-25T04:26:05.035Z,9.70
2023-01-25T04:28:34.152Z,8.60
2023-01-25T04:31:02.791Z,7.67
2023-01-25T04:33:29.406Z,9.80
2023-01-25T04:35:55.978Z,9.17
2023-01-25T04:38:22.560Z,9.33
2023-01-25T04:40:50.635Z,9.03
2023-01-25T04:43:19.235Z,8.47
2023-01-25T04:45:46.174Z,9.67
2023-01-25T04:48:13.712Z,11.47
2023-01-25T04:50:42.130Z,14.30
2023-01-25T04:53:11.222Z,7.77
2023-01-25T04:55:37.736Z,7.60
2023-01-25T04:58:04.214Z,8.47
2023-01-25T05:00:32.115Z,14.67
2023-01-25T05:02:58.585Z,9.20
2023-01-25T05:05:25.313Z,39.50
2023-01-25T05:07:51.783Z,8.33
2023-01-25T05:10:18.352Z,8.53
2023-01-25T05:12:44.908Z,10.60
2023-01-25T05:15:12.117Z,11.30
2023-01-25T05:17:38.789Z,13.80
2023-01-25T05:20:05.873Z,10.53
2023-01-25T05:22:32.636Z,12.67
2023-01-25T05:25:01.084Z,8.03
2023-01-25T05:27:27.543Z,12.93
2023-01-25T05:29:54.781Z,56.30
2023-01-25T05:32:23.129Z,29.80
2023-01-25T05:34:49.676Z,34.90
2023-01-25T05:37:19.670Z,56.57
2023-01-25T05:39:46.404Z,38.40
2023-01-25T05:42:16.869Z,52.97
2023-01-25T05:44:46.280Z,53.90
2023-01-25T05:47:16.901Z,35.97
2023-01-25T05:49:43.926Z,72.60
2023-01-25T05:52:15.388Z,56.00
2023-01-25T05:54:42.035Z,31.90
2023-01-25T05:57:08.659Z,73.47
2023-01-25T05:59:35.137Z,62.23
2023-01-25T06:02:01.613Z,64.70
2023-01-25T06:04:28.105Z,55.10
2023-01-25T06:06:54.591Z,64.40
2023-01-25T06:09:21.629Z,91.57
2023-01-25T06:11:48.483Z,103.60
2023-01-25T06:14:15.084Z,112.27
2023-01-25T06:16:41.689Z,53.03
2023-01-25T06:19:08.674Z,65.57
2023-01-25T06:21:38.332Z,83.97
2023-01-25T06:24:05.420Z,59.83
2023-01-25T06:26:32.010Z,60.87
2023-01-25T06:28:58.647Z,64.97
2023-01-25T06:31:25.251Z,128.00
2023-01-25T06:33:52.373Z,49.50
2023-01-25T06:36:21.256Z,86.67
2023-01-25T06:38:50.151Z,94.83
2023-01-25T06:41:17.101Z,112.03
2023-01-25T06:43:43.599Z,77.93
2023-01-25T06:46:11.315Z,74.63
2023-01-25T06:48:38.477Z,124.00
2023-01-25T06:51:09.172Z,65.50
2023-01-25T06:53:40.625Z,77.70
2023-01-25T06:56:12.005Z,90.57
2023-01-25T06:58:39.567Z,189.57
2023-01-25T07:01:19.411Z,78.87
2023-01-25T07:03:51.164Z,128.83
2023-01-25T07:06:18.268Z,139.20
2023-01-25T07:08:45.226Z,103.47
2023-01-25T07:11:13.475Z,136.33
2023-01-25T07:13:42.801Z,131.77
2023-01-25T07:16:17.397Z,124.73
2023-01-25T07:18:43.941Z,81.77
2023-01-25T07:21:20.704Z,90.93
2023-01-25T07:23:48.173Z,92.17
2023-01-25T07:26:25.522Z,168.23
2023-01-25T07:28:55.188Z,130.13
2023-01-25T07:31:22.012Z,147.80
2023-01-25T07:33:51.124Z,44.40
2023-01-25T07:36:18.127Z,94.83
2023-01-25T07:38:45.264Z,56.00
2023-01-25T07:41:12.376Z,100.40
2023-01-25T07:43:39.200Z,73.83
2023-01-25T07:46:12.199Z,62.17
2023-01-25T07:48:40.848Z,45.57
2023-01-25T07:51:12.153Z,68.87
2023-01-25T07:53:44.091Z,35.60
2023-01-25T07:56:11.803Z,21.50
2023-01-25T07:58:38.835Z,24.63
2023-01-25T08:01:11.323Z,32.67
2023-01-25T08:03:38.161Z,30.40
2023-01-25T08:06:05.439Z,33.80
2023-01-25T08:08:39.051Z,23.43
2023-01-25T08:11:17.145Z,24.43
2023-01-25T08:13:48.238Z,22.43
2023-01-25T08:16:18.274Z,20.77
2023-01-25T08:18:54.273Z,21.53
2023-01-25T08:21:28.340Z,19.47
2023-01-25T08:24:05.796Z,22.83
2023-01-25T08:26:34.313Z,20.77
2023-01-25T08:29:00.973Z,21.80
2023-01-25T08:31:31.629Z,18.97
2023-01-25T08:34:00.160Z,23.70
2023-01-25T08:36:27.954Z,26.67
2023-01-25T08:39:00.746Z,20.40
2023-01-25T08:41:30.038Z,23.03
2023-01-25T08:43:57.881Z,27.10
2023-01-25T08:46:30.253Z,25.07
2023-01-25T08:49:00.323Z,19.70
2023-01-25T08:51:30.737Z,23.43
2023-01-25T08:54:00.848Z,24.67
2023-01-25T08:56:27.329Z,24.60
2023-01-25T08:58:54.965Z,25.73
2023-01-25T09:01:21.465Z,18.77
2023-01-25T09:03:50.446Z,23.87
2023-01-25T09:06:19.454Z,24.37
2023-01-25T09:08:46.786Z,21.53
2023-01-25T09:11:18.032Z,24.47
2023-01-25T09:13:44.646Z,21.93
2023-01-25T09:16:19.877Z,21.90
2023-01-25T09:18:49.576Z,21.17
2023-01-25T09:21:18.552Z,22.07
2023-01-25T09:24:04.469Z,20.13
2023-01-25T09:26:34.307Z,23.83
2023-01-25T09:29:00.855Z,20.87
2023-01-25T09:31:28.598Z,25.03
2023-01-25T09:33:56.436Z,22.30
2023-01-25T09:36:23.122Z,22.20
2023-01-25T09:38:49.600Z,23.27
2023-01-25T09:43:11.365Z,26.20
2023-01-25T09:45:37.847Z,23.73
2023-01-25T09:50:43.807Z,26.67
2023-01-25T09:55:35.069Z,21.63
2023-01-25T09:58:03.437Z,19.40
2023-01-25T10:00:38.579Z,19.43
2023-01-25T10:03:37.965Z,24.30
2023-01-25T10:06:04.663Z,20.70
2023-01-25T10:12:03.964Z,23.10
2023-01-25T10:14:34.808Z,23.83
2023-01-25T10:17:26.634Z,31.43
2023-01-25T10:20:31.201Z,32.93
2023-01-25T10:23:53.377Z,27.47
2023-01-25T10:26:29.110Z,30.10
2023-01-25T10:29:59.274Z,39.27
2023-01-25T10:32:31.744Z,29.70
2023-01-25T10:35:34.409Z,31.53
2023-01-25T10:38:15.050Z,25.37
2023-01-25T10:40:49.388Z,17.93
2023-01-25T10:43:21.005Z,18.83
2023-01-25T10:45:49.383Z,19.97
2023-01-25T10:48:25.721Z,17.73
2023-01-25T10:50:55.130Z,18.07
2023-01-25T10:53:43.394Z,19.47
2023-01-25T10:56:25.881Z,15.77
2023-01-25T10:59:07.253Z,17.77
2023-01-25T11:01:36.751Z,15.33
2023-01-25T11:04:44.839Z,15.07
2023-01-25T11:07:30.717Z,15.50
2023-01-25T11:09:57.196Z,15.30
2023-01-25T11:12:23.714Z,14.13
2023-01-25T11:14:50.753Z,14.90
2023-01-25T11:17:31.426Z,14.50
2023-01-25T11:20:20.793Z,15.77
2023-01-25T11:22:56.815Z,16.03
2023-01-25T11:25:41.286Z,15.60
2023-01-25T11:28:21.019Z,14.30
2023-01-25T11:30:49.135Z,14.27
2023-01-25T11:33:19.363Z,14.73
2023-01-25T11:39:07.884Z,16.77
2023-01-25T11:45:25.483Z,15.20
2023-01-25T11:50:38.303Z,16.87
2023-01-25T11:56:48.790Z,17.97
2023-01-25T12:01:26.620Z,13.33
2023-01-25T12:04:37.621Z,15.60
2023-01-25T12:07:14.850Z,16.77
2023-01-25T12:10:26.844Z,15.77
2023-01-25T12:17:10.076Z,21.27
2023-01-25T12:23:05.436Z,18.03
2023-01-25T12:29:03.307Z,21.33
2023-01-25T12:31:52.800Z,19.77
2023-01-25T12:35:39.239Z,19.73
2023-01-25T12:38:29.451Z,19.93
2023-01-25T12:41:24.528Z,19.63
2023-01-25T12:44:22.482Z,25.87
2023-01-25T12:47:27.485Z,17.80
2023-01-25T12:50:14.675Z,19.63
2023-01-25T12:52:57.588Z,17.60
2023-01-25T12:55:24.953Z,18.63
2023-01-25T12:58:43.230Z,22.03
2023-01-25T13:02:54.351Z,18.93
2023-01-25T13:06:05.648Z,23.10
2023-01-25T13:09:16.922Z,27.33
2023-01-25T13:11:46.908Z,21.37
2023-01-25T13:14:36.573Z,21.33
2023-01-25T13:17:31.614Z,19.13
2023-01-25T13:19:59.180Z,20.77
2023-01-25T13:24:25.820Z,20.33
2023-01-25T13:27:24.006Z,22.90
2023-01-25T13:31:01.453Z,20.23
2023-01-25T13:33:35.421Z,18.70
2023-01-25T13:36:56.569Z,20.43
2023-01-25T13:40:31.958Z,16.70
2023-01-25T13:44:17.345Z,18.53
2023-01-25T13:46:43.823Z,17.40
2023-01-25T13:49:23.942Z,15.03
2023-01-25T13:51:50.521Z,15.00
2023-01-25T13:54:17.299Z,19.47
2023-01-25T13:56:44.377Z,17.43
2023-01-25T13:59:27.515Z,19.03
2023-01-25T14:01:54.066Z,19.83
2023-01-25T14:04:20.826Z,15.70
2023-01-25T14:06:47.354Z,18.83
2023-01-25T14:09:22.745Z,19.77
2023-01-25T14:12:00.176Z,18.57
2023-01-25T14:14:30.821Z,20.30
2023-01-25T14:17:30.360Z,16.50
2023-01-25T14:19:56.852Z,23.13
2023-01-25T14:22:29.367Z,16.63
2023-01-25T14:25:19.798Z,16.93
2023-01-25T14:27:55.760Z,14.07
2023-01-25T14:30:31.872Z,16.97
2023-01-25T14:33:53.777Z,15.60
2023-01-25T14:36:25.681Z,18.60
2023-01-25T14:38:53.274Z,21.33
2023-01-25T14:41:33.098Z,17.43
2023-01-25T14:44:05.518Z,17.67
2023-01-25T14:46:37.280Z,15.60
2023-01-25T14:50:31.905Z,25.80
2023-01-25T14:53:07.899Z,26.13
2023-01-25T14:55:36.247Z,20.10
2023-01-25T14:58:03.129Z,19.90
2023-01-25T15:00:34.443Z,19.07
2023-01-25T15:03:05.223Z,19.60
2023-01-25T15:05:35.605Z,23.20
2023-01-25T15:09:42.233Z,26.03
2023-01-25T15:12:32.205Z,17.73
2023-01-25T15:14:59.256Z,18.87
2023-01-25T15:17:50.078Z,26.13
2023-01-25T15:20:48.827Z,22.63
2023-01-25T15:23:26.609Z,18.40
2023-01-25T15:25:59.778Z,23.97
2023-01-25T15:28:33.654Z,23.10
2023-01-25T15:31:00.482Z,21.83
2023-01-25T15:33:29.669Z,23.83
2023-01-25T15:35:56.351Z,24.20
2023-01-25T15:38:24.204Z,21.77
2023-01-25T15:40:51.501Z,23.53
2023-01-25T15:43:19.478Z,23.27
2023-01-25T15:45:48.865Z,21.73
2023-01-25T15:48:19.818Z,22.97
2023-01-25T15:50:46.334Z,25.97
2023-01-25T15:53:18.027Z,23.07
2023-01-25T15:55:50.263Z,24.40
2023-01-25T15:58:28.000Z,29.70
2023-01-25T16:00:54.510Z,25.27
2023-01-25T16:03:20.985Z,29.53
2023-01-25T16:06:17.015Z,27.40
2023-01-25T16:08:43.552Z,30.03
2023-01-25T16:11:10.208Z,36.30
2023-01-25T16:13:36.664Z,28.73
2023-01-25T16:16:05.224Z,28.90
2023-01-25T16:18:31.983Z,31.30
2023-01-25T16:20:58.453Z,26.20
2023-01-25T16:23:24.949Z,26.70
2023-01-25T16:25:51.459Z,26.50
2023-01-25T16:28:17.913Z,27.23
2023-01-25T16:30:44.509Z,37.20
2023-01-25T16:33:11.268Z,41.00
2023-01-25T16:35:37.753Z,39.37
2023-01-25T16:38:04.213Z,31.43
2023-01-25T16:40:38.007Z,44.10
2023-01-25T16:43:05.107Z,46.70
2023-01-25T16:45:31.561Z,52.60
2023-01-25T16:47:58.027Z,53.70
2023-01-25T16:50:24.467Z,57.73
2023-01-25T16:52:50.997Z,49.37
2023-01-25T16:55:18.790Z,50.73
2023-01-25T16:57:49.970Z,56.93
2023-01-25T17:00:17.282Z,54.63
2023-01-25T17:02:58.346Z,48.77
2023-01-25T17:05:31.866Z,51.77
2023-01-25T17:07:58.331Z,50.07
2023-01-25T17:10:25.440Z,46.57
2023-01-25T17:12:51.914Z,48.70
2023-01-25T17:15:19.768Z,43.83
2023-01-25T17:17:46.553Z,38.27
2023-01-25T17:20:13.094Z,46.30
2023-01-25T17:22:41.141Z,39.27
2023-01-25T17:25:07.890Z,42.00
2023-01-25T17:27:34.456Z,37.47
2023-01-25T17:30:00.938Z,38.37
2023-01-25T17:32:27.941Z,35.73
2023-01-25T17:34:58.180Z,33.90
2023-01-25T17:37:24.845Z,31.50
2023-01-25T17:39:51.290Z,36.33
2023-01-25T17:42:17.755Z,28.97
2023-01-25T17:44:44.221Z,30.53
2023-01-25T17:47:10.678Z,33.50
2023-01-25T17:49:37.154Z,27.23
2023-01-25T17:52:03.628Z,32.70
2023-01-25T17:54:30.111Z,31.40
2023-01-25T17:56:56.561Z,27.87
2023-01-25T17:59:23.041Z,26.33
2023-01-25T18:01:49.811Z,32.20
2023-01-25T18:04:17.207Z,25.90
2023-01-25T18:06:43.841Z,27.33
2023-01-25T18:09:10.332Z,29.93
2023-01-25T18:11:40.030Z,24.53
2023-01-25T18:14:14.397Z,23.37
2023-01-25T18:16:41.327Z,22.90
2023-01-25T18:19:08.655Z,24.73
2023-01-25T18:21:36.109Z,25.10
2023-01-25T18:24:35.238Z,23.87
2023-01-25T18:27:07.637Z,22.23
2023-01-25T18:29:53.618Z,24.53
2023-01-25T18:32:20.598Z,20.33
2023-01-25T18:34:48.080Z,25.07
2023-01-25T18:37:19.883Z,24.53
2023-01-25T18:39:54.477Z,23.37
2023-01-25T18:42:24.055Z,23.93
2023-01-25T18:44:50.498Z,23.17
2023-01-25T18:47:22.065Z,24.03
2023-01-25T18:49:50.964Z,30.33
2023-01-25T18:52:19.804Z,23.87
2023-01-25T18:54:46.514Z,24.97
2023-01-25T18:57:14.652Z,26.40
2023-01-25T18:59:41.345Z,28.10
2023-01-25T19:02:11.195Z,25.53
2023-01-25T19:04:37.681Z,28.43
2023-01-25T19:07:04.309Z,22.77
2023-01-25T19:09:30.857Z,27.33
2023-01-25T19:11:57.743Z,19.43
2023-01-25T19:14:25.157Z,24.53
2023-01-25T19:16:52.000Z,30.00
2023-01-25T19:19:20.131Z,22.97
2023-01-25T19:21:46.722Z,26.73
2023-01-25T19:24:19.294Z,29.27
2023-01-25T19:26:46.625Z,31.47
2023-01-25T19:29:14.443Z,23.07
2023-01-25T19:31:41.032Z,24.63
2023-01-25T19:34:07.764Z,24.83
2023-01-25T19:36:37.235Z,21.90
2023-01-25T19:39:09.242Z,22.07
2023-01-25T19:41:37.986Z,23.57
2023-01-25T19:44:06.452Z,24.00
2023-01-25T19:46:35.547Z,29.00
2023-01-25T19:49:05.008Z,24.50
2023-01-25T19:51:35.117Z,29.47
2023-01-25T19:54:09.234Z,23.20
2023-01-25T19:56:39.576Z,23.37
2023-01-25T19:59:16.315Z,20.10
2023-01-25T20:01:44.163Z,24.93
2023-01-25T20:04:16.901Z,26.97
2023-01-25T20:06:43.694Z,34.90
2023-01-25T20:09:13.051Z,27.70
2023-01-25T20:11:40.309Z,23.03
2023-01-25T20:14:07.240Z,29.20
2023-01-25T20:16:34.984Z,26.50
2023-01-25T20:19:03.403Z,24.60
2023-01-25T20:21:31.379Z,24.50
2023-01-25T20:24:04.672Z,27.50
2023-01-25T20:26:36.628Z,26.20
2023-01-25T20:29:03.249Z,26.00
2023-01-25T20:31:37.205Z,19.43
2023-01-25T20:34:14.363Z,25.20
2023-01-25T20:36:41.661Z,26.13
2023-01-25T20:39:12.064Z,28.50
2023-01-25T20:41:38.507Z,23.53
2023-01-25T20:44:07.732Z,26.33
2023-01-25T20:46:37.824Z,23.43
2023-01-25T20:49:13.977Z,23.23
2023-01-25T20:51:42.015Z,24.87
2023-01-25T20:54:09.231Z,27.60
2023-01-25T20:56:35.985Z,24.90
2023-01-25T20:59:02.460Z,24.53
2023-01-25T21:01:36.230Z,24.40
2023-01-25T21:04:04.833Z,24.73
2023-01-25T21:06:33.499Z,25.20
2023-01-25T21:09:00.258Z,24.03
2023-01-25T21:11:26.764Z,25.77
2023-01-25T21:13:53.283Z,31.93
2023-01-25T21:16:21.920Z,31.43
2023-01-25T21:18:55.204Z,27.20
2023-01-25T21:21:28.250Z,27.33
2023-01-25T21:23:58.990Z,31.73
2023-01-25T21:26:30.164Z,29.83
2023-01-25T21:28:59.168Z,29.37
2023-01-25T21:31:30.059Z,26.53
2023-01-25T21:33:56.896Z,25.33
2023-01-25T21:36:23.991Z,25.27
2023-01-25T21:38:53.487Z,25.33
2023-01-25T21:41:32.728Z,25.07
2023-01-25T21:44:18.731Z,26.90
2023-01-25T21:47:00.733Z,23.07
2023-01-25T21:50:00.533Z,21.53
2023-01-25T21:52:27.011Z,29.70
2023-01-25T21:54:53.487Z,26.67
2023-01-25T21:57:19.939Z,30.07
2023-01-25T21:59:46.408Z,30.20
2023-01-25T22:02:14.253Z,27.20
2023-01-25T22:04:40.817Z,24.13
2023-01-25T22:07:08.920Z,30.50
2023-01-25T22:09:35.463Z,25.00
2023-01-25T22:12:02.007Z,30.13
2023-01-25T22:14:28.615Z,25.80
2023-01-25T22:16:55.427Z,30.40
2023-01-25T22:19:22.188Z,26.90
2023-01-25T22:21:48.751Z,23.37
2023-01-25T22:24:15.755Z,25.73
2023-01-25T22:28:13.836Z,26.97
2023-01-25T22:30:40.613Z,24.00
2023-01-25T22:33:07.178Z,26.63
2023-01-25T22:35:33.626Z,22.93
2023-01-25T22:38:00.139Z,22.70
2023-01-25T22:40:26.584Z,23.30
2023-01-25T22:42:53.061Z,23.83
2023-01-25T22:45:19.537Z,26.43
2023-01-25T22:47:45.992Z,22.60
2023-01-25T22:50:12.809Z,25.77
2023-01-25T22:52:39.498Z,28.70
2023-01-25T22:55:06.690Z,22.37
2023-01-25T22:57:33.139Z,29.03
2023-01-25T22:59:59.605Z,29.53
2023-01-25T23:02:26.089Z,24.70
2023-01-25T23:04:52.652Z,25.37
2023-01-25T23:07:19.188Z,23.60
2023-01-25T23:09:47.687Z,25.50
2023-01-25T23:12:14.764Z,26.90
2023-01-25T23:14:50.524Z,28.23
2023-01-25T23:17:42.058Z,28.70
2023-01-25T23:20:11.665Z,31.87
2023-01-25T23:22:38.310Z,29.07
2023-01-25T23:25:06.241Z,27.00
2023-01-25T23:27:32.700Z,28.03
2023-01-25T23:29:59.193Z,27.93
2023-01-25T23:32:25.693Z,29.27
2023-01-25T23:34:52.465Z,29.93
2023-01-25T23:37:21.315Z,29.90
2023-01-25T23:39:49.533Z,27.53
2023-01-25T23:42:16.013Z,32.30
2023-01-25T23:44:42.711Z,29.90
2023-01-25T23:47:09.212Z,25.90
2023-01-25T23:49:35.686Z,23.00
2023-01-25T23:52:02.125Z,28.20
2023-01-25T23:54:28.919Z,29.03
2023-01-25T23:56:55.388Z,27.60
2023-01-25T23:59:21.828Z,26.20
